createdAt,value
2018-01-05T00:01:49.106Z,9.40
2018-01-05T00:04:55.368Z,9.40
2018-01-05T00:08:00.799Z,9.40
2018-01-05T00:11:05.535Z,9.30
2018-01-05T00:14:11.754Z,9.30
2018-01-05T00:17:17.446Z,9.40
2018-01-05T00:20:22.242Z,9.40
2018-01-05T00:23:27.877Z,9.30
2018-01-05T00:26:33.070Z,9.30
2018-01-05T00:29:37.918Z,9.10
2018-01-05T00:32:43.759Z,9.00
2018-01-05T00:35:48.494Z,9.00
2018-01-05T00:38:53.808Z,9.00
2018-01-05T00:41:59.504Z,9.20
2018-01-05T00:45:04.410Z,9.30
2018-01-05T00:48:10.675Z,9.10
2018-01-05T00:51:16.079Z,9.10
2018-01-05T00:54:21.249Z,9.20
2018-01-05T00:57:26.827Z,9.10
2018-01-05T01:00:31.694Z,9.20
2018-01-05T01:03:37.182Z,9.30
2018-01-05T01:06:41.987Z,9.30
2018-01-05T01:09:47.111Z,9.30
2018-01-05T01:12:52.830Z,9.20
2018-01-05T01:15:57.778Z,9.20
2018-01-05T01:19:03.980Z,9.20
2018-01-05T01:22:10.423Z,9.20
2018-01-05T01:25:15.546Z,9.20
2018-01-05T01:28:21.339Z,9.10
2018-01-05T01:31:27.103Z,8.80
2018-01-05T01:34:32.766Z,8.80
2018-01-05T01:37:37.822Z,8.80
2018-01-05T01:40:43.121Z,8.90
2018-01-05T01:43:48.991Z,8.80
2018-01-05T01:46:55.032Z,9.00
2018-01-05T01:50:00.746Z,9.10
2018-01-05T01:53:06.254Z,9.00
2018-01-05T01:56:12.075Z,9.00
2018-01-05T01:59:17.686Z,9.00
2018-01-05T02:02:22.819Z,8.90
2018-01-05T02:05:28.442Z,8.80
2018-01-05T02:08:33.967Z,8.80
2018-01-05T02:11:39.787Z,8.80
2018-01-05T02:14:46.067Z,8.80
2018-01-05T02:17:51.762Z,8.80
2018-01-05T02:20:57.335Z,8.70
2018-01-05T02:24:03.590Z,8.70
2018-01-05T02:27:09.061Z,8.70
2018-01-05T02:30:14.795Z,8.80
2018-01-05T02:33:20.258Z,8.80
2018-01-05T02:36:25.842Z,8.80
2018-01-05T02:39:31.144Z,8.80
2018-01-05T02:42:36.829Z,8.80
2018-01-05T02:45:41.511Z,8.90
2018-01-05T02:48:46.246Z,8.80
2018-01-05T02:51:52.358Z,8.90
2018-01-05T02:54:58.134Z,8.90
2018-01-05T02:58:03.328Z,8.90
2018-01-05T03:01:08.807Z,8.90
2018-01-05T03:04:13.598Z,9.10
2018-01-05T03:07:19.324Z,9.10
2018-01-05T03:10:25.759Z,9.10
2018-01-05T03:13:30.724Z,9.10
2018-01-05T03:16:35.580Z,9.10
2018-01-05T03:19:41.766Z,8.90
2018-01-05T03:22:47.938Z,8.90
2018-01-05T03:25:52.744Z,8.90
2018-01-05T03:28:58.123Z,9.00
2018-01-05T03:32:03.183Z,8.90
2018-01-05T03:35:08.390Z,8.80
2018-01-05T03:38:14.126Z,8.80
2018-01-05T03:41:19.753Z,8.90
2018-01-05T03:44:25.250Z,8.90
2018-01-05T03:47:30.159Z,8.80
2018-01-05T03:50:35.149Z,8.80
2018-01-05T03:53:40.647Z,8.60
2018-01-05T03:56:46.634Z,8.60
2018-01-05T03:59:51.827Z,8.60
2018-01-05T04:02:58.089Z,8.60
2018-01-05T04:06:03.911Z,8.80
2018-01-05T04:09:09.647Z,8.70
2018-01-05T04:12:15.640Z,8.80
2018-01-05T04:15:22.026Z,8.80
2018-01-05T04:18:27.045Z,8.80
2018-01-05T04:21:33.277Z,8.90
2018-01-05T04:24:39.303Z,8.90
2018-01-05T04:27:45.203Z,8.90
2018-01-05T04:30:50.080Z,8.90
2018-01-05T04:33:55.533Z,8.90
2018-01-05T04:37:01.750Z,9.00
2018-01-05T04:40:07.934Z,8.90
2018-01-05T04:43:13.506Z,8.90
2018-01-05T04:46:19.307Z,8.90
2018-01-05T04:49:24.894Z,8.90
2018-01-05T04:52:31.359Z,9.00
2018-01-05T04:55:36.347Z,9.00
2018-01-05T04:58:41.091Z,9.00
2018-01-05T05:01:46.619Z,9.00
2018-01-05T05:04:51.614Z,9.10
2018-01-05T05:07:57.142Z,9.10
2018-01-05T05:11:02.598Z,9.10
2018-01-05T05:14:07.993Z,9.10
2018-01-05T05:17:13.566Z,9.10
2018-01-05T05:20:18.646Z,9.20
2018-01-05T05:23:24.243Z,9.10
2018-01-05T05:26:30.315Z,9.10
2018-01-05T05:29:36.953Z,9.10
2018-01-05T05:32:42.699Z,9.10
2018-01-05T05:35:47.797Z,9.10
2018-01-05T05:38:53.878Z,9.10
2018-01-05T05:41:59.677Z,9.10
2018-01-05T05:45:04.967Z,9.10
2018-01-05T05:48:10.438Z,9.00
2018-01-05T05:51:15.919Z,9.00
2018-01-05T05:54:21.086Z,8.90
2018-01-05T05:57:26.620Z,8.90
2018-01-05T06:00:32.053Z,8.90
2018-01-05T06:03:37.710Z,8.90
2018-01-05T06:06:43.791Z,8.90
2018-01-05T06:09:49.519Z,8.80
2018-01-05T06:12:55.288Z,8.90
2018-01-05T06:16:01.399Z,8.80
2018-01-05T06:19:06.694Z,8.80
2018-01-05T06:22:11.926Z,8.70
2018-01-05T06:25:17.414Z,8.70
2018-01-05T06:28:23.120Z,8.70
2018-01-05T06:31:28.559Z,8.80
2018-01-05T06:34:34.136Z,8.70
2018-01-05T06:37:38.966Z,8.80
2018-01-05T06:40:43.795Z,8.80
2018-01-05T06:43:48.875Z,8.80
2018-01-05T06:46:54.342Z,8.80
2018-01-05T06:49:59.186Z,8.80
2018-01-05T06:53:05.051Z,8.80
2018-01-05T06:56:09.932Z,8.80
2018-01-05T06:59:15.418Z,8.80
2018-01-05T07:02:20.375Z,8.70
2018-01-05T07:05:26.481Z,8.70
2018-01-05T07:08:32.291Z,8.70
2018-01-05T07:11:37.926Z,8.70
2018-01-05T07:14:42.749Z,8.80
2018-01-05T07:17:47.698Z,8.80
2018-01-05T07:20:52.518Z,8.80
2018-01-05T07:23:57.356Z,8.80
2018-01-05T07:27:02.214Z,8.90
2018-01-05T07:30:07.802Z,8.90
2018-01-05T07:33:13.966Z,9.00
2018-01-05T07:36:18.871Z,9.00
2018-01-05T07:39:25.281Z,9.10
2018-01-05T07:42:30.107Z,9.00
2018-01-05T07:45:34.890Z,9.10
2018-01-05T07:48:40.665Z,9.10
2018-01-05T07:51:45.481Z,9.10
2018-01-05T07:54:50.390Z,9.10
2018-01-05T07:57:55.974Z,9.10
2018-01-05T08:01:02.474Z,9.10
2018-01-05T08:04:08.221Z,9.20
2018-01-05T08:07:14.455Z,9.30
2018-01-05T08:10:19.321Z,9.30
2018-01-05T08:13:25.554Z,9.40
2018-01-05T08:16:30.598Z,9.40
2018-01-05T08:19:35.650Z,9.40
2018-01-05T08:22:41.774Z,9.30
2018-01-05T08:25:47.842Z,9.30
2018-01-05T08:28:53.875Z,9.50
2018-01-05T08:31:59.102Z,9.40
2018-01-05T08:35:04.030Z,9.50
2018-01-05T08:38:09.689Z,9.50
2018-01-05T08:41:15.201Z,9.30
2018-01-05T08:44:20.118Z,9.40
2018-01-05T08:47:25.413Z,9.40
2018-01-05T08:50:32.096Z,9.70
2018-01-05T08:53:37.578Z,9.60
2018-01-05T08:56:42.618Z,9.80
2018-01-05T08:59:48.217Z,9.90
2018-01-05T09:02:53.591Z,10.00
2018-01-05T09:05:59.198Z,9.90
2018-01-05T09:09:05.442Z,10.10
2018-01-05T09:12:10.254Z,10.10
2018-01-05T09:15:15.367Z,10.10
2018-01-05T09:18:20.393Z,10.10
2018-01-05T09:21:26.605Z,10.20
2018-01-05T09:24:31.430Z,10.20
2018-01-05T09:27:37.775Z,10.40
2018-01-05T09:30:42.882Z,10.40
2018-01-05T09:33:48.278Z,10.50
2018-01-05T09:36:54.090Z,10.80
2018-01-05T09:39:59.887Z,10.80
2018-01-05T09:43:05.134Z,11.00
2018-01-05T09:46:11.217Z,10.90
2018-01-05T09:49:16.877Z,10.90
2018-01-05T09:52:22.978Z,10.90
2018-01-05T09:55:28.817Z,11.10
2018-01-05T09:58:35.354Z,11.00
2018-01-05T10:01:40.914Z,11.00
2018-01-05T10:04:46.551Z,10.80
2018-01-05T10:07:52.907Z,10.90
2018-01-05T10:10:58.526Z,10.90
2018-01-05T10:14:04.335Z,11.00
2018-01-05T10:17:10.222Z,11.10
2018-01-05T10:20:14.955Z,11.10
2018-01-05T10:23:20.542Z,11.20
2018-01-05T10:26:26.938Z,11.20
2018-01-05T10:29:32.398Z,11.20
2018-01-05T10:32:38.054Z,11.10
2018-01-05T10:35:43.470Z,11.20
2018-01-05T10:38:50.119Z,11.40
2018-01-05T10:41:56.811Z,12.20
2018-01-05T10:45:03.295Z,12.30
2018-01-05T10:48:08.307Z,12.30
2018-01-05T10:51:14.431Z,12.50
2018-01-05T10:54:20.570Z,12.50
2018-01-05T10:57:25.826Z,12.40
2018-01-05T11:00:31.722Z,12.30
2018-01-05T11:03:36.932Z,12.20
2018-01-05T11:06:43.193Z,12.00
2018-01-05T11:09:49.510Z,12.20
2018-01-05T11:12:55.311Z,12.10
2018-01-05T11:16:00.041Z,12.10
2018-01-05T11:19:05.838Z,12.10
2018-01-05T11:22:11.853Z,11.90
2018-01-05T11:25:18.010Z,11.90
2018-01-05T11:28:23.941Z,11.90
2018-01-05T11:31:30.133Z,11.80
2018-01-05T11:34:35.721Z,11.80
2018-01-05T11:37:41.885Z,11.70
2018-01-05T11:40:47.978Z,11.60
2018-01-05T11:43:52.778Z,11.60
2018-01-05T11:46:58.593Z,11.60
2018-01-05T11:50:04.142Z,11.50
2018-01-05T11:53:09.102Z,11.40
2018-01-05T11:56:15.558Z,11.30
2018-01-05T11:59:21.261Z,11.20
2018-01-05T12:02:27.497Z,11.10
2018-01-05T12:05:32.422Z,11.10
2018-01-05T12:08:38.474Z,11.30
2018-01-05T12:11:44.422Z,11.30
2018-01-05T12:14:50.659Z,11.20
2018-01-05T12:17:55.561Z,11.20
2018-01-05T12:21:01.468Z,11.30
2018-01-05T12:24:06.374Z,11.20
2018-01-05T12:27:11.910Z,11.20
2018-01-05T12:30:18.302Z,11.20
2018-01-05T12:33:24.314Z,11.10
2018-01-05T12:36:30.774Z,11.10
2018-01-05T12:39:36.418Z,11.10
2018-01-05T12:42:41.426Z,11.10
2018-01-05T12:45:46.502Z,11.10
2018-01-05T12:48:51.497Z,11.10
2018-01-05T12:51:56.314Z,11.10
2018-01-05T12:55:01.622Z,11.00
2018-01-05T12:58:06.950Z,10.80
2018-01-05T13:01:11.886Z,10.60
2018-01-05T13:04:17.649Z,10.60
2018-01-05T13:07:23.549Z,10.70
2018-01-05T13:10:29.671Z,10.70
2018-01-05T13:13:35.170Z,10.80
2018-01-05T13:16:40.790Z,10.70
2018-01-05T13:19:46.600Z,10.90
2018-01-05T13:22:51.774Z,10.80
2018-01-05T13:25:57.334Z,11.00
2018-01-05T13:29:03.652Z,11.00
2018-01-05T13:32:08.694Z,11.00
2018-01-05T13:35:14.189Z,10.80
2018-01-05T13:38:20.361Z,10.80
2018-01-05T13:41:25.462Z,10.80
2018-01-05T13:44:30.314Z,10.90
2018-01-05T13:47:36.649Z,11.00
2018-01-05T13:50:42.402Z,11.00
2018-01-05T13:53:48.007Z,10.90
2018-01-05T13:56:53.836Z,10.70
2018-01-05T13:59:59.571Z,10.70
2018-01-05T14:03:05.138Z,10.50
2018-01-05T14:06:10.352Z,10.60
2018-01-05T14:09:15.246Z,10.60
2018-01-05T14:12:21.196Z,10.60
2018-01-05T14:15:27.754Z,10.50
2018-01-05T14:18:33.073Z,10.50
2018-01-05T14:21:39.017Z,10.40
2018-01-05T14:24:44.774Z,10.30
2018-01-05T14:27:50.319Z,10.30
2018-01-05T14:30:56.086Z,10.40
2018-01-05T14:34:01.869Z,10.40
2018-01-05T14:37:07.318Z,10.40
2018-01-05T14:40:13.326Z,9.90
2018-01-05T14:43:19.333Z,10.00
2018-01-05T14:46:25.000Z,9.90
2018-01-05T14:49:30.670Z,9.90
2018-01-05T14:52:36.614Z,9.80
2018-01-05T14:55:43.061Z,9.80
2018-01-05T14:58:48.146Z,9.80
2018-01-05T15:01:54.201Z,9.80
2018-01-05T15:04:59.840Z,9.80
2018-01-05T15:08:05.141Z,9.80
2018-01-05T15:11:11.646Z,9.70
2018-01-05T15:14:17.580Z,9.70
2018-01-05T15:17:23.621Z,9.70
2018-01-05T15:20:29.330Z,9.70
2018-01-05T15:23:35.337Z,9.70
2018-01-05T15:26:41.334Z,9.70
2018-01-05T15:29:47.022Z,9.70
2018-01-05T15:32:52.322Z,9.80
2018-01-05T15:35:57.282Z,9.80
2018-01-05T15:39:03.074Z,9.80
2018-01-05T15:42:08.449Z,9.70
2018-01-05T15:45:14.950Z,9.60
2018-01-05T15:48:21.158Z,9.50
2018-01-05T15:51:27.006Z,9.50
2018-01-05T15:54:32.434Z,9.50
2018-01-05T15:57:38.078Z,9.40
2018-01-05T16:00:43.901Z,9.50
2018-01-05T16:03:48.732Z,9.50
2018-01-05T16:06:54.945Z,9.50
2018-01-05T16:10:00.757Z,9.50
2018-01-05T16:13:06.338Z,9.50
2018-01-05T16:16:11.766Z,9.60
2018-01-05T16:19:17.974Z,9.60
2018-01-05T16:22:23.970Z,9.60
2018-01-05T16:25:30.153Z,9.60
2018-01-05T16:28:36.032Z,9.60
2018-01-05T16:31:41.637Z,9.80
2018-01-05T16:34:47.625Z,9.70
2018-01-05T16:37:53.347Z,9.70
2018-01-05T16:41:00.134Z,9.70
2018-01-05T16:44:06.023Z,9.70
2018-01-05T16:47:11.809Z,9.70
2018-01-05T16:50:19.063Z,9.80
2018-01-05T16:53:24.549Z,9.60
2018-01-05T16:56:29.879Z,9.60
2018-01-05T16:59:35.362Z,9.60
2018-01-05T17:02:41.362Z,9.60
2018-01-05T17:05:46.290Z,9.50
2018-01-05T17:08:52.818Z,9.40
2018-01-05T17:11:57.902Z,9.40
2018-01-05T17:15:02.706Z,9.40
2018-01-05T17:18:07.830Z,9.40
2018-01-05T17:21:13.493Z,9.50
2018-01-05T17:24:19.214Z,9.50
2018-01-05T17:27:24.604Z,9.40
2018-01-05T17:30:29.998Z,9.50
2018-01-05T17:33:35.526Z,9.50
2018-01-05T17:36:41.777Z,9.40
2018-01-05T17:39:47.015Z,9.50
2018-01-05T17:42:53.014Z,9.30
2018-01-05T17:45:58.829Z,9.30
2018-01-05T17:49:04.064Z,9.30
2018-01-05T17:52:09.554Z,9.30
2018-01-05T17:55:15.130Z,9.40
2018-01-05T17:58:21.334Z,9.40
2018-01-05T18:01:26.278Z,9.40
2018-01-05T18:04:32.038Z,9.30
2018-01-05T18:07:38.029Z,9.20
2018-01-05T18:10:43.647Z,9.20
2018-01-05T18:13:50.039Z,9.10
2018-01-05T18:16:56.005Z,9.10
2018-01-05T18:20:02.238Z,9.10
2018-01-05T18:23:07.926Z,9.00
2018-01-05T18:26:12.726Z,9.10
2018-01-05T18:29:18.529Z,9.10
2018-01-05T18:32:24.791Z,9.20
2018-01-05T18:35:29.982Z,9.10
2018-01-05T18:38:36.198Z,9.30
2018-01-05T18:41:41.800Z,9.30
2018-01-05T18:44:47.871Z,9.20
2018-01-05T18:47:53.390Z,9.20
2018-01-05T18:50:58.606Z,9.20
2018-01-05T18:54:03.919Z,9.10
2018-01-05T18:57:08.902Z,9.00
2018-01-05T19:00:13.794Z,9.10
2018-01-05T19:03:21.141Z,9.00
2018-01-05T19:06:26.746Z,9.00
2018-01-05T19:09:33.210Z,9.00
2018-01-05T19:12:39.025Z,9.00
2018-01-05T19:15:44.275Z,9.00
2018-01-05T19:18:49.706Z,9.00
2018-01-05T19:21:55.422Z,9.00
2018-01-05T19:25:00.762Z,9.00
2018-01-05T19:28:07.143Z,9.00
2018-01-05T19:31:12.605Z,9.10
2018-01-05T19:34:18.366Z,9.10
2018-01-05T19:37:24.064Z,9.10
2018-01-05T19:40:29.187Z,9.10
2018-01-05T19:43:34.574Z,9.10
2018-01-05T19:46:39.358Z,9.10
2018-01-05T19:49:45.702Z,9.00
2018-01-05T19:52:52.846Z,8.90
2018-01-05T19:55:57.751Z,8.90
2018-01-05T19:59:08.769Z,8.90
2018-01-05T20:02:17.130Z,9.00
2018-01-05T20:05:22.837Z,9.00
2018-01-05T20:08:35.921Z,9.00
2018-01-05T20:11:42.074Z,9.00
2018-01-05T20:14:47.630Z,8.90
2018-01-05T20:17:55.014Z,8.90
2018-01-05T20:21:00.590Z,8.90
2018-01-05T20:24:06.696Z,8.80
2018-01-05T20:27:12.458Z,8.70
2018-01-05T20:30:18.009Z,8.80
2018-01-05T20:33:24.176Z,8.80
2018-01-05T20:36:29.686Z,8.80
2018-01-05T20:39:35.453Z,8.90
2018-01-05T20:42:40.638Z,8.90
2018-01-05T20:45:47.182Z,8.90
2018-01-05T20:48:52.442Z,8.90
2018-01-05T20:51:58.439Z,9.00
2018-01-05T20:55:05.271Z,8.90
2018-01-05T20:58:10.642Z,8.90
2018-01-05T21:01:16.418Z,8.90
2018-01-05T21:04:21.142Z,8.80
2018-01-05T21:07:26.820Z,8.90
2018-01-05T21:10:32.429Z,8.90
2018-01-05T21:13:37.694Z,8.90
2018-01-05T21:16:42.474Z,8.80
2018-01-05T21:19:47.285Z,8.90
2018-01-05T21:22:53.506Z,8.80
2018-01-05T21:26:01.820Z,8.80
2018-01-05T21:29:06.954Z,8.80
2018-01-05T21:32:12.970Z,8.80
2018-01-05T21:35:18.519Z,8.80
2018-01-05T21:38:24.786Z,8.80
2018-01-05T21:41:30.308Z,8.80
2018-01-05T21:44:35.423Z,8.90
2018-01-05T21:47:40.717Z,8.90
2018-01-05T21:50:46.414Z,8.90
2018-01-05T21:53:51.918Z,8.80
2018-01-05T21:56:57.166Z,8.80
2018-01-05T22:00:02.150Z,8.80
2018-01-05T22:03:07.862Z,8.90
2018-01-05T22:06:13.818Z,8.90
2018-01-05T22:09:18.985Z,8.90
2018-01-05T22:12:24.466Z,8.80
2018-01-05T22:15:30.278Z,8.80
2018-01-05T22:18:43.854Z,8.80
2018-01-05T22:21:49.318Z,8.80
2018-01-05T22:24:54.299Z,8.80
2018-01-05T22:28:00.040Z,8.80
2018-01-05T22:31:05.737Z,8.80
2018-01-05T22:34:11.110Z,8.80
2018-01-05T22:37:17.131Z,8.80
2018-01-05T22:40:21.873Z,8.80
2018-01-05T22:43:26.975Z,8.80
2018-01-05T22:46:32.629Z,8.80
2018-01-05T22:49:38.198Z,8.80
2018-01-05T22:52:43.890Z,8.80
2018-01-05T22:55:49.274Z,8.80
2018-01-05T22:58:55.584Z,8.80
2018-01-05T23:02:01.262Z,8.80
2018-01-05T23:05:07.022Z,8.70
2018-01-05T23:08:12.603Z,8.70
2018-01-05T23:11:17.997Z,8.70
2018-01-05T23:14:23.510Z,8.70
2018-01-05T23:17:28.669Z,8.80
2018-01-05T23:20:34.136Z,8.70
2018-01-05T23:23:39.494Z,8.60
2018-01-05T23:26:45.897Z,8.70
2018-01-05T23:29:50.749Z,8.70
2018-01-05T23:32:56.258Z,8.70
2018-01-05T23:36:02.029Z,8.70
2018-01-05T23:39:07.006Z,8.70
2018-01-05T23:42:13.050Z,8.70
2018-01-05T23:45:18.094Z,8.70
2018-01-05T23:48:23.209Z,8.80
2018-01-05T23:51:28.228Z,8.80
2018-01-05T23:54:33.713Z,8.80
2018-01-05T23:57:39.408Z,8.70
